sensor_id;sensor_type;location;lat;lon;timestamp;P1;durP1;ratioP1;P2;durP2;ratioP2
11496;SDS011;5805;51.542;7.230;2023-04-24T00:00:34;0.70;;;0.50;;
11496;SDS011;5805;51.542;7.230;2023-04-24T00:03:02;1.77;;;0.60;;
11496;SDS011;5805;51.542;7.230;2023-04-24T00:05:28;1.13;;;0.60;;
11496;SDS011;5805;51.542;7.230;2023-04-24T00:07:53;0.75;;;0.60;;
11496;SDS011;5805;51.542;7.230;2023-04-24T00:10:19;1.20;;;0.60;;
11496;SDS011;5805;51.542;7.230;2023-04-24T00:12:45;3.47;;;0.52;;
11496;SDS011;5805;51.542;7.230;2023-04-24T00:15:11;0.68;;;0.57;;
11496;SDS011;5805;51.542;7.230;2023-04-24T00:17:36;3.08;;;0.63;;
11496;SDS011;5805;51.542;7.230;2023-04-24T00:20:04;1.35;;;0.60;;
11496;SDS011;5805;51.542;7.230;2023-04-24T00:22:31;0.95;;;0.50;;
11496;SDS011;5805;51.542;7.230;2023-04-24T00:24:56;0.50;;;0.40;;
11496;SDS011;5805;51.542;7.230;2023-04-24T00:27:22;1.85;;;0.70;;
11496;SDS011;5805;51.542;7.230;2023-04-24T00:29:48;0.68;;;0.47;;
11496;SDS011;5805;51.542;7.230;2023-04-24T00:32:14;0.90;;;0.63;;
11496;SDS011;5805;51.542;7.230;2023-04-24T00:34:40;0.55;;;0.50;;
11496;SDS011;5805;51.542;7.230;2023-04-24T00:37:07;0.47;;;0.47;;
11496;SDS011;5805;51.542;7.230;2023-04-24T00:39:33;2.15;;;0.52;;
11496;SDS011;5805;51.542;7.230;2023-04-24T00:41:59;0.70;;;0.60;;
11496;SDS011;5805;51.542;7.230;2023-04-24T00:44:25;1.92;;;0.73;;
11496;SDS011;5805;51.542;7.230;2023-04-24T00:46:50;0.65;;;0.65;;
11496;SDS011;5805;51.542;7.230;2023-04-24T00:49:16;0.50;;;0.50;;
11496;SDS011;5805;51.542;7.230;2023-04-24T00:51:43;0.55;;;0.55;;
11496;SDS011;5805;51.542;7.230;2023-04-24T00:54:10;0.50;;;0.50;;
11496;SDS011;5805;51.542;7.230;2023-04-24T00:56:35;0.80;;;0.80;;
11496;SDS011;5805;51.542;7.230;2023-04-24T00:59:01;1.92;;;0.75;;
11496;SDS011;5805;51.542;7.230;2023-04-24T01:01:27;4.13;;;0.77;;
11496;SDS011;5805;51.542;7.230;2023-04-24T01:03:53;0.60;;;0.60;;
11496;SDS011;5805;51.542;7.230;2023-04-24T01:06:19;1.02;;;0.63;;
11496;SDS011;5805;51.542;7.230;2023-04-24T01:08:47;2.15;;;0.82;;
11496;SDS011;5805;51.542;7.230;2023-04-24T01:11:14;0.70;;;0.60;;
11496;SDS011;5805;51.542;7.230;2023-04-24T01:13:40;0.82;;;0.77;;
11496;SDS011;5805;51.542;7.230;2023-04-24T01:16:06;0.73;;;0.68;;
11496;SDS011;5805;51.542;7.230;2023-04-24T01:18:32;0.82;;;0.82;;
11496;SDS011;5805;51.542;7.230;2023-04-24T01:20:58;0.80;;;0.80;;
11496;SDS011;5805;51.542;7.230;2023-04-24T01:23:26;2.17;;;1.30;;
11496;SDS011;5805;51.542;7.230;2023-04-24T01:25:51;1.00;;;0.70;;
11496;SDS011;5805;51.542;7.230;2023-04-24T01:28:18;1.15;;;0.90;;
11496;SDS011;5805;51.542;7.230;2023-04-24T01:30:43;2.08;;;0.73;;
11496;SDS011;5805;51.542;7.230;2023-04-24T01:33:09;0.98;;;0.82;;
11496;SDS011;5805;51.542;7.230;2023-04-24T01:35:35;1.10;;;0.80;;
11496;SDS011;5805;51.542;7.230;2023-04-24T01:38:01;1.88;;;1.20;;
11496;SDS011;5805;51.542;7.230;2023-04-24T01:40:28;1.40;;;0.98;;
11496;SDS011;5805;51.542;7.230;2023-04-24T01:42:54;2.65;;;1.10;;
11496;SDS011;5805;51.542;7.230;2023-04-24T01:45:20;2.10;;;1.10;;
11496;SDS011;5805;51.542;7.230;2023-04-24T01:47:46;1.15;;;1.05;;
11496;SDS011;5805;51.542;7.230;2023-04-24T01:50:13;1.40;;;1.15;;
11496;SDS011;5805;51.542;7.230;2023-04-24T01:52:38;2.03;;;1.30;;
11496;SDS011;5805;51.542;7.230;2023-04-24T01:55:04;1.58;;;1.27;;
11496;SDS011;5805;51.542;7.230;2023-04-24T01:57:32;1.77;;;1.50;;
11496;SDS011;5805;51.542;7.230;2023-04-24T01:59:59;1.60;;;1.38;;
11496;SDS011;5805;51.542;7.230;2023-04-24T02:02:24;1.75;;;1.58;;
11496;SDS011;5805;51.542;7.230;2023-04-24T02:04:50;1.88;;;1.75;;
11496;SDS011;5805;51.542;7.230;2023-04-24T02:07:16;2.08;;;1.77;;
11496;SDS011;5805;51.542;7.230;2023-04-24T02:09:42;2.50;;;1.70;;
11496;SDS011;5805;51.542;7.230;2023-04-24T02:12:07;1.70;;;1.60;;
11496;SDS011;5805;51.542;7.230;2023-04-24T02:14:34;1.88;;;1.67;;
11496;SDS011;5805;51.542;7.230;2023-04-24T02:17:00;2.15;;;1.58;;
11496;SDS011;5805;51.542;7.230;2023-04-24T02:19:26;2.00;;;1.52;;
11496;SDS011;5805;51.542;7.230;2023-04-24T02:21:51;1.73;;;1.50;;
11496;SDS011;5805;51.542;7.230;2023-04-24T02:24:17;4.25;;;2.00;;
11496;SDS011;5805;51.542;7.230;2023-04-24T02:26:43;2.45;;;1.75;;
11496;SDS011;5805;51.542;7.230;2023-04-24T02:29:09;2.08;;;1.83;;
11496;SDS011;5805;51.542;7.230;2023-04-24T02:31:36;2.08;;;1.88;;
11496;SDS011;5805;51.542;7.230;2023-04-24T02:34:01;2.25;;;2.05;;
11496;SDS011;5805;51.542;7.230;2023-04-24T02:36:27;2.30;;;2.05;;
11496;SDS011;5805;51.542;7.230;2023-04-24T02:38:53;4.45;;;2.75;;
11496;SDS011;5805;51.542;7.230;2023-04-24T02:41:18;4.93;;;2.85;;
11496;SDS011;5805;51.542;7.230;2023-04-24T02:43:44;3.40;;;2.58;;
11496;SDS011;5805;51.542;7.230;2023-04-24T02:46:10;3.90;;;2.95;;
11496;SDS011;5805;51.542;7.230;2023-04-24T02:48:37;3.47;;;2.92;;
11496;SDS011;5805;51.542;7.230;2023-04-24T02:51:03;4.57;;;3.75;;
11496;SDS011;5805;51.542;7.230;2023-04-24T02:53:28;6.47;;;3.95;;
11496;SDS011;5805;51.542;7.230;2023-04-24T02:55:54;6.18;;;3.90;;
11496;SDS011;5805;51.542;7.230;2023-04-24T02:58:20;6.60;;;3.85;;
11496;SDS011;5805;51.542;7.230;2023-04-24T03:00:45;7.15;;;4.13;;
11496;SDS011;5805;51.542;7.230;2023-04-24T03:03:11;8.00;;;4.15;;
11496;SDS011;5805;51.542;7.230;2023-04-24T03:05:38;5.20;;;4.00;;
11496;SDS011;5805;51.542;7.230;2023-04-24T03:08:04;6.85;;;4.47;;
11496;SDS011;5805;51.542;7.230;2023-04-24T03:10:30;9.13;;;5.13;;
11496;SDS011;5805;51.542;7.230;2023-04-24T03:12:55;6.10;;;4.30;;
11496;SDS011;5805;51.542;7.230;2023-04-24T03:15:21;6.78;;;4.40;;
11496;SDS011;5805;51.542;7.230;2023-04-24T03:17:47;7.45;;;4.63;;
11496;SDS011;5805;51.542;7.230;2023-04-24T03:20:13;6.53;;;4.72;;
11496;SDS011;5805;51.542;7.230;2023-04-24T03:22:40;7.85;;;4.88;;
11496;SDS011;5805;51.542;7.230;2023-04-24T03:25:06;5.82;;;4.93;;
11496;SDS011;5805;51.542;7.230;2023-04-24T03:27:32;8.38;;;5.65;;
11496;SDS011;5805;51.542;7.230;2023-04-24T03:29:58;7.82;;;5.18;;
11496;SDS011;5805;51.542;7.230;2023-04-24T03:32:23;9.07;;;5.18;;
11496;SDS011;5805;51.542;7.230;2023-04-24T03:34:49;8.77;;;5.53;;
11496;SDS011;5805;51.542;7.230;2023-04-24T03:37:15;6.72;;;5.40;;
11496;SDS011;5805;51.542;7.230;2023-04-24T03:39:42;9.18;;;5.40;;
11496;SDS011;5805;51.542;7.230;2023-04-24T03:42:08;6.88;;;5.15;;
11496;SDS011;5805;51.542;7.230;2023-04-24T03:44:34;9.48;;;5.22;;
11496;SDS011;5805;51.542;7.230;2023-04-24T03:46:59;9.05;;;5.50;;
11496;SDS011;5805;51.542;7.230;2023-04-24T03:49:25;7.63;;;5.22;;
11496;SDS011;5805;51.542;7.230;2023-04-24T03:51:51;7.43;;;5.15;;
11496;SDS011;5805;51.542;7.230;2023-04-24T03:54:16;8.45;;;5.32;;
11496;SDS011;5805;51.542;7.230;2023-04-24T03:56:43;9.68;;;5.97;;
11496;SDS011;5805;51.542;7.230;2023-04-24T03:59:09;7.97;;;6.40;;
11496;SDS011;5805;51.542;7.230;2023-04-24T04:01:35;9.82;;;5.85;;
11496;SDS011;5805;51.542;7.230;2023-04-24T04:04:01;7.90;;;5.32;;
11496;SDS011;5805;51.542;7.230;2023-04-24T04:06:26;7.30;;;5.78;;
11496;SDS011;5805;51.542;7.230;2023-04-24T04:08:52;7.38;;;5.43;;
11496;SDS011;5805;51.542;7.230;2023-04-24T04:11:18;10.60;;;5.47;;
11496;SDS011;5805;51.542;7.230;2023-04-24T04:13:45;8.65;;;5.47;;
11496;SDS011;5805;51.542;7.230;2023-04-24T04:16:11;7.22;;;5.50;;
11496;SDS011;5805;51.542;7.230;2023-04-24T04:18:36;8.38;;;5.55;;
11496;SDS011;5805;51.542;7.230;2023-04-24T04:21:02;7.97;;;5.85;;
11496;SDS011;5805;51.542;7.230;2023-04-24T04:23:28;9.07;;;5.55;;
11496;SDS011;5805;51.542;7.230;2023-04-24T04:25:54;7.00;;;5.65;;
11496;SDS011;5805;51.542;7.230;2023-04-24T04:28:19;7.55;;;5.35;;
11496;SDS011;5805;51.542;7.230;2023-04-24T04:30:46;7.10;;;5.63;;
11496;SDS011;5805;51.542;7.230;2023-04-24T04:33:12;11.15;;;5.85;;
11496;SDS011;5805;51.542;7.230;2023-04-24T04:35:38;8.02;;;5.32;;
11496;SDS011;5805;51.542;7.230;2023-04-24T04:38:04;7.35;;;5.07;;
11496;SDS011;5805;51.542;7.230;2023-04-24T04:40:30;8.75;;;5.50;;
11496;SDS011;5805;51.542;7.230;2023-04-24T04:42:55;7.55;;;5.95;;
11496;SDS011;5805;51.542;7.230;2023-04-24T04:45:21;8.90;;;5.80;;
11496;SDS011;5805;51.542;7.230;2023-04-24T04:47:48;7.63;;;5.43;;
11496;SDS011;5805;51.542;7.230;2023-04-24T04:50:14;8.55;;;5.75;;
11496;SDS011;5805;51.542;7.230;2023-04-24T04:52:39;8.57;;;5.60;;
11496;SDS011;5805;51.542;7.230;2023-04-24T04:55:05;9.35;;;5.82;;
11496;SDS011;5805;51.542;7.230;2023-04-24T04:57:32;6.88;;;5.00;;
11496;SDS011;5805;51.542;7.230;2023-04-24T04:59:57;8.55;;;5.07;;
11496;SDS011;5805;51.542;7.230;2023-04-24T05:02:23;9.35;;;5.63;;
11496;SDS011;5805;51.542;7.230;2023-04-24T05:04:50;8.38;;;6.13;;
11496;SDS011;5805;51.542;7.230;2023-04-24T05:07:16;7.90;;;5.18;;
11496;SDS011;5805;51.542;7.230;2023-04-24T05:09:41;11.43;;;5.45;;
11496;SDS011;5805;51.542;7.230;2023-04-24T05:12:07;9.60;;;5.00;;
11496;SDS011;5805;51.542;7.230;2023-04-24T05:14:33;11.30;;;5.18;;
11496;SDS011;5805;51.542;7.230;2023-04-24T05:16:58;8.70;;;5.05;;
11496;SDS011;5805;51.542;7.230;2023-04-24T05:19:24;12.13;;;5.72;;
11496;SDS011;5805;51.542;7.230;2023-04-24T05:21:51;7.45;;;5.18;;
11496;SDS011;5805;51.542;7.230;2023-04-24T05:24:17;6.47;;;5.30;;
11496;SDS011;5805;51.542;7.230;2023-04-24T05:26:42;6.80;;;4.60;;
11496;SDS011;5805;51.542;7.230;2023-04-24T05:29:08;6.63;;;4.88;;
11496;SDS011;5805;51.542;7.230;2023-04-24T05:31:34;6.03;;;4.55;;
11496;SDS011;5805;51.542;7.230;2023-04-24T05:33:59;9.25;;;4.95;;
11496;SDS011;5805;51.542;7.230;2023-04-24T05:36:25;6.32;;;4.65;;
11496;SDS011;5805;51.542;7.230;2023-04-24T05:38:52;4.95;;;4.47;;
11496;SDS011;5805;51.542;7.230;2023-04-24T05:41:18;5.30;;;4.05;;
11496;SDS011;5805;51.542;7.230;2023-04-24T05:43:43;5.22;;;4.07;;
11496;SDS011;5805;51.542;7.230;2023-04-24T05:46:09;7.30;;;4.22;;
11496;SDS011;5805;51.542;7.230;2023-04-24T05:48:36;7.03;;;4.22;;
11496;SDS011;5805;51.542;7.230;2023-04-24T05:51:02;5.22;;;4.60;;
11496;SDS011;5805;51.542;7.230;2023-04-24T05:53:28;4.63;;;3.83;;
11496;SDS011;5805;51.542;7.230;2023-04-24T05:55:55;6.20;;;4.25;;
11496;SDS011;5805;51.542;7.230;2023-04-24T05:58:20;8.05;;;5.15;;
11496;SDS011;5805;51.542;7.230;2023-04-24T06:00:46;7.65;;;5.32;;
11496;SDS011;5805;51.542;7.230;2023-04-24T06:03:12;6.20;;;4.35;;
11496;SDS011;5805;51.542;7.230;2023-04-24T06:05:37;6.57;;;4.72;;
11496;SDS011;5805;51.542;7.230;2023-04-24T06:08:03;8.10;;;5.25;;
11496;SDS011;5805;51.542;7.230;2023-04-24T06:10:29;6.43;;;5.07;;
11496;SDS011;5805;51.542;7.230;2023-04-24T06:12:56;8.75;;;5.30;;
11496;SDS011;5805;51.542;7.230;2023-04-24T06:15:22;6.80;;;4.85;;
11496;SDS011;5805;51.542;7.230;2023-04-24T06:17:48;6.93;;;5.13;;
11496;SDS011;5805;51.542;7.230;2023-04-24T06:20:13;8.55;;;5.03;;
11496;SDS011;5805;51.542;7.230;2023-04-24T06:22:39;6.47;;;4.57;;
11496;SDS011;5805;51.542;7.230;2023-04-24T06:25:05;6.53;;;4.85;;
11496;SDS011;5805;51.542;7.230;2023-04-24T06:27:31;5.72;;;4.90;;
11496;SDS011;5805;51.542;7.230;2023-04-24T06:29:58;10.05;;;4.72;;
11496;SDS011;5805;51.542;7.230;2023-04-24T06:32:24;6.53;;;4.70;;
11496;SDS011;5805;51.542;7.230;2023-04-24T06:34:50;5.03;;;4.03;;
11496;SDS011;5805;51.542;7.230;2023-04-24T06:37:16;5.53;;;4.15;;
11496;SDS011;5805;51.542;7.230;2023-04-24T06:39:42;6.03;;;4.30;;
11496;SDS011;5805;51.542;7.230;2023-04-24T06:42:07;6.28;;;4.18;;
11496;SDS011;5805;51.542;7.230;2023-04-24T06:44:33;4.97;;;4.15;;
11496;SDS011;5805;51.542;7.230;2023-04-24T06:47:00;6.10;;;4.22;;
11496;SDS011;5805;51.542;7.230;2023-04-24T06:49:26;5.93;;;3.80;;
11496;SDS011;5805;51.542;7.230;2023-04-24T06:51:51;7.38;;;3.80;;
11496;SDS011;5805;51.542;7.230;2023-04-24T06:54:17;5.68;;;3.78;;
11496;SDS011;5805;51.542;7.230;2023-04-24T06:56:43;5.35;;;3.90;;
11496;SDS011;5805;51.542;7.230;2023-04-24T06:59:08;5.75;;;4.40;;
11496;SDS011;5805;51.542;7.230;2023-04-24T07:01:34;5.55;;;3.58;;
11496;SDS011;5805;51.542;7.230;2023-04-24T07:04:01;5.05;;;3.88;;
11496;SDS011;5805;51.542;7.230;2023-04-24T07:06:27;4.68;;;3.17;;
11496;SDS011;5805;51.542;7.230;2023-04-24T07:08:53;4.50;;;3.30;;
11496;SDS011;5805;51.542;7.230;2023-04-24T07:11:19;4.72;;;3.33;;
11496;SDS011;5805;51.542;7.230;2023-04-24T07:13:44;3.78;;;3.22;;
11496;SDS011;5805;51.542;7.230;2023-04-24T07:16:10;3.60;;;3.15;;
11496;SDS011;5805;51.542;7.230;2023-04-24T07:18:36;4.20;;;3.15;;
11496;SDS011;5805;51.542;7.230;2023-04-24T07:21:03;4.05;;;2.88;;
11496;SDS011;5805;51.542;7.230;2023-04-24T07:23:29;3.50;;;3.20;;
11496;SDS011;5805;51.542;7.230;2023-04-24T07:25:55;3.95;;;2.90;;
11496;SDS011;5805;51.542;7.230;2023-04-24T07:28:20;3.35;;;2.60;;
11496;SDS011;5805;51.542;7.230;2023-04-24T07:30:46;6.32;;;2.70;;
11496;SDS011;5805;51.542;7.230;2023-04-24T07:33:12;3.63;;;2.67;;
11496;SDS011;5805;51.542;7.230;2023-04-24T07:35:37;2.72;;;2.30;;
11496;SDS011;5805;51.542;7.230;2023-04-24T07:38:05;2.17;;;1.98;;
11496;SDS011;5805;51.542;7.230;2023-04-24T07:40:30;2.03;;;1.60;;
11496;SDS011;5805;51.542;7.230;2023-04-24T07:42:56;2.00;;;1.77;;
11496;SDS011;5805;51.542;7.230;2023-04-24T07:45:22;2.45;;;1.67;;
11496;SDS011;5805;51.542;7.230;2023-04-24T07:47:48;2.08;;;1.70;;
11496;SDS011;5805;51.542;7.230;2023-04-24T07:50:15;1.88;;;1.60;;
11496;SDS011;5805;51.542;7.230;2023-04-24T07:52:41;1.55;;;1.45;;
11496;SDS011;5805;51.542;7.230;2023-04-24T07:55:08;1.98;;;1.50;;
11496;SDS011;5805;51.542;7.230;2023-04-24T07:57:33;1.60;;;1.50;;
11496;SDS011;5805;51.542;7.230;2023-04-24T08:00:00;4.20;;;1.35;;
11496;SDS011;5805;51.542;7.230;2023-04-24T08:02:26;3.00;;;1.55;;
11496;SDS011;5805;51.542;7.230;2023-04-24T08:04:51;1.23;;;1.13;;
11496;SDS011;5805;51.542;7.230;2023-04-24T08:07:17;2.30;;;1.15;;
11496;SDS011;5805;51.542;7.230;2023-04-24T08:09:43;1.00;;;1.00;;
11496;SDS011;5805;51.542;7.230;2023-04-24T08:12:10;0.85;;;0.80;;
11496;SDS011;5805;51.542;7.230;2023-04-24T08:14:35;0.90;;;0.90;;
11496;SDS011;5805;51.542;7.230;2023-04-24T08:17:01;0.60;;;0.60;;
11496;SDS011;5805;51.542;7.230;2023-04-24T08:19:27;1.50;;;0.57;;
11496;SDS011;5805;51.542;7.230;2023-04-24T08:21:53;0.50;;;0.50;;
11496;SDS011;5805;51.542;7.230;2023-04-24T08:24:18;0.32;;;0.32;;
11496;SDS011;5805;51.542;7.230;2023-04-24T08:26:44;2.35;;;0.50;;
11496;SDS011;5805;51.542;7.230;2023-04-24T08:29:11;0.65;;;0.30;;
11496;SDS011;5805;51.542;7.230;2023-04-24T08:31:37;0.88;;;0.47;;
11496;SDS011;5805;51.542;7.230;2023-04-24T08:34:03;0.70;;;0.30;;
11496;SDS011;5805;51.542;7.230;2023-04-24T08:36:28;0.80;;;0.50;;
11496;SDS011;5805;51.542;7.230;2023-04-24T08:38:54;1.38;;;0.50;;
11496;SDS011;5805;51.542;7.230;2023-04-24T08:41:20;0.50;;;0.50;;
11496;SDS011;5805;51.542;7.230;2023-04-24T08:43:47;1.70;;;0.80;;
11496;SDS011;5805;51.542;7.230;2023-04-24T08:46:14;0.80;;;0.60;;
11496;SDS011;5805;51.542;7.230;2023-04-24T08:48:41;1.45;;;0.80;;
11496;SDS011;5805;51.542;7.230;2023-04-24T08:51:07;0.80;;;0.73;;
11496;SDS011;5805;51.542;7.230;2023-04-24T08:53:33;0.80;;;0.73;;
11496;SDS011;5805;51.542;7.230;2023-04-24T08:56:00;0.77;;;0.57;;
11496;SDS011;5805;51.542;7.230;2023-04-24T08:58:27;1.58;;;0.90;;
11496;SDS011;5805;51.542;7.230;2023-04-24T09:00:53;0.77;;;0.68;;
11496;SDS011;5805;51.542;7.230;2023-04-24T09:03:21;1.08;;;0.50;;
11496;SDS011;5805;51.542;7.230;2023-04-24T09:05:48;0.70;;;0.70;;
11496;SDS011;5805;51.542;7.230;2023-04-24T09:08:14;1.45;;;0.70;;
11496;SDS011;5805;51.542;7.230;2023-04-24T09:10:42;0.77;;;0.77;;
11496;SDS011;5805;51.542;7.230;2023-04-24T09:13:08;1.17;;;1.08;;
11496;SDS011;5805;51.542;7.230;2023-04-24T09:15:34;1.02;;;0.98;;
11496;SDS011;5805;51.542;7.230;2023-04-24T09:18:00;1.55;;;1.00;;
11496;SDS011;5805;51.542;7.230;2023-04-24T09:20:28;1.40;;;1.23;;
11496;SDS011;5805;51.542;7.230;2023-04-24T09:22:54;2.55;;;0.90;;
11496;SDS011;5805;51.542;7.230;2023-04-24T09:25:21;2.35;;;1.05;;
11496;SDS011;5805;51.542;7.230;2023-04-24T09:27:47;1.98;;;1.17;;
11496;SDS011;5805;51.542;7.230;2023-04-24T09:30:13;1.40;;;1.30;;
11496;SDS011;5805;51.542;7.230;2023-04-24T09:32:45;2.28;;;1.40;;
11496;SDS011;5805;51.542;7.230;2023-04-24T09:35:11;1.50;;;1.10;;
11496;SDS011;5805;51.542;7.230;2023-04-24T09:37:40;1.63;;;1.27;;
11496;SDS011;5805;51.542;7.230;2023-04-24T09:40:12;1.15;;;1.05;;
11496;SDS011;5805;51.542;7.230;2023-04-24T09:42:39;1.92;;;1.38;;
11496;SDS011;5805;51.542;7.230;2023-04-24T09:45:08;1.30;;;1.20;;
11496;SDS011;5805;51.542;7.230;2023-04-24T09:47:35;3.60;;;1.40;;
11496;SDS011;5805;51.542;7.230;2023-04-24T09:50:08;1.98;;;1.35;;
11496;SDS011;5805;51.542;7.230;2023-04-24T09:52:35;1.80;;;1.65;;
11496;SDS011;5805;51.542;7.230;2023-04-24T09:55:02;1.38;;;1.27;;
11496;SDS011;5805;51.542;7.230;2023-04-24T09:57:35;5.32;;;1.50;;
11496;SDS011;5805;51.542;7.230;2023-04-24T10:00:01;2.60;;;1.33;;
11496;SDS011;5805;51.542;7.230;2023-04-24T10:02:27;2.35;;;1.70;;
11496;SDS011;5805;51.542;7.230;2023-04-24T10:04:57;2.00;;;1.70;;
11496;SDS011;5805;51.542;7.230;2023-04-24T10:07:25;3.90;;;1.98;;
11496;SDS011;5805;51.542;7.230;2023-04-24T10:09:51;2.00;;;1.80;;
11496;SDS011;5805;51.542;7.230;2023-04-24T10:12:18;2.70;;;2.20;;
11496;SDS011;5805;51.542;7.230;2023-04-24T10:14:45;2.35;;;2.08;;
11496;SDS011;5805;51.542;7.230;2023-04-24T10:17:11;3.05;;;2.40;;
11496;SDS011;5805;51.542;7.230;2023-04-24T10:19:37;2.33;;;2.13;;
11496;SDS011;5805;51.542;7.230;2023-04-24T10:22:05;4.45;;;2.22;;
11496;SDS011;5805;51.542;7.230;2023-04-24T10:24:31;2.97;;;2.28;;
11496;SDS011;5805;51.542;7.230;2023-04-24T10:26:59;3.42;;;2.30;;
11496;SDS011;5805;51.542;7.230;2023-04-24T10:29:26;4.10;;;2.13;;
11496;SDS011;5805;51.542;7.230;2023-04-24T10:31:56;4.75;;;2.28;;
11496;SDS011;5805;51.542;7.230;2023-04-24T10:34:21;4.25;;;2.72;;
11496;SDS011;5805;51.542;7.230;2023-04-24T10:36:50;3.63;;;2.53;;
11496;SDS011;5805;51.542;7.230;2023-04-24T10:39:17;2.90;;;2.58;;
11496;SDS011;5805;51.542;7.230;2023-04-24T10:41:44;3.60;;;2.97;;
11496;SDS011;5805;51.542;7.230;2023-04-24T10:44:11;4.50;;;2.67;;
11496;SDS011;5805;51.542;7.230;2023-04-24T10:46:43;4.30;;;3.47;;
11496;SDS011;5805;51.542;7.230;2023-04-24T10:49:09;4.07;;;2.97;;
11496;SDS011;5805;51.542;7.230;2023-04-24T10:51:45;3.30;;;2.55;;
11496;SDS011;5805;51.542;7.230;2023-04-24T10:54:22;5.07;;;2.60;;
11496;SDS011;5805;51.542;7.230;2023-04-24T10:56:49;4.30;;;2.60;;
11496;SDS011;5805;51.542;7.230;2023-04-24T10:59:23;4.00;;;2.63;;
11496;SDS011;5805;51.542;7.230;2023-04-24T11:01:53;4.70;;;2.67;;
11496;SDS011;5805;51.542;7.230;2023-04-24T11:04:29;4.38;;;2.97;;
11496;SDS011;5805;51.542;7.230;2023-04-24T11:06:55;5.32;;;2.83;;
11496;SDS011;5805;51.542;7.230;2023-04-24T11:09:22;6.20;;;3.15;;
11496;SDS011;5805;51.542;7.230;2023-04-24T11:11:51;5.90;;;3.67;;
11496;SDS011;5805;51.542;7.230;2023-04-24T11:14:28;8.38;;;3.60;;
11496;SDS011;5805;51.542;7.230;2023-04-24T11:16:55;8.88;;;4.13;;
11496;SDS011;5805;51.542;7.230;2023-04-24T11:19:24;10.82;;;3.88;;
11496;SDS011;5805;51.542;7.230;2023-04-24T11:21:54;7.00;;;3.50;;
11496;SDS011;5805;51.542;7.230;2023-04-24T11:24:23;7.15;;;3.95;;
11496;SDS011;5805;51.542;7.230;2023-04-24T11:26:50;9.10;;;3.80;;
11496;SDS011;5805;51.542;7.230;2023-04-24T11:29:16;8.05;;;3.13;;
11496;SDS011;5805;51.542;7.230;2023-04-24T11:31:45;9.35;;;4.00;;
11496;SDS011;5805;51.542;7.230;2023-04-24T11:34:12;7.10;;;3.38;;
11496;SDS011;5805;51.542;7.230;2023-04-24T11:36:39;9.38;;;3.50;;
11496;SDS011;5805;51.542;7.230;2023-04-24T11:39:07;10.38;;;3.30;;
11496;SDS011;5805;51.542;7.230;2023-04-24T11:41:33;6.97;;;3.50;;
11496;SDS011;5805;51.542;7.230;2023-04-24T11:43:59;7.15;;;3.72;;
11496;SDS011;5805;51.542;7.230;2023-04-24T11:46:29;9.30;;;3.05;;
11496;SDS011;5805;51.542;7.230;2023-04-24T11:48:55;8.85;;;3.45;;
11496;SDS011;5805;51.542;7.230;2023-04-24T11:51:23;10.57;;;3.30;;
11496;SDS011;5805;51.542;7.230;2023-04-24T11:53:49;7.25;;;3.67;;
11496;SDS011;5805;51.542;7.230;2023-04-24T11:56:17;8.68;;;3.60;;
11496;SDS011;5805;51.542;7.230;2023-04-24T11:58:44;10.15;;;3.63;;
11496;SDS011;5805;51.542;7.230;2023-04-24T12:01:10;7.90;;;3.92;;
11496;SDS011;5805;51.542;7.230;2023-04-24T12:03:36;10.02;;;3.40;;
11496;SDS011;5805;51.542;7.230;2023-04-24T12:06:05;8.48;;;2.92;;
11496;SDS011;5805;51.542;7.230;2023-04-24T12:08:32;6.35;;;3.00;;
11496;SDS011;5805;51.542;7.230;2023-04-24T12:10:58;6.65;;;2.88;;
11496;SDS011;5805;51.542;7.230;2023-04-24T12:13:25;5.25;;;2.20;;
11496;SDS011;5805;51.542;7.230;2023-04-24T12:15:51;6.47;;;2.53;;
11496;SDS011;5805;51.542;7.230;2023-04-24T12:18:17;6.50;;;3.17;;
11496;SDS011;5805;51.542;7.230;2023-04-24T12:20:43;7.43;;;2.50;;
11496;SDS011;5805;51.542;7.230;2023-04-24T12:23:08;5.47;;;2.15;;
11496;SDS011;5805;51.542;7.230;2023-04-24T12:25:35;3.83;;;1.83;;
11496;SDS011;5805;51.542;7.230;2023-04-24T12:28:09;6.20;;;2.63;;
11496;SDS011;5805;51.542;7.230;2023-04-24T12:30:39;6.22;;;2.22;;
11496;SDS011;5805;51.542;7.230;2023-04-24T12:33:05;5.22;;;2.30;;
11496;SDS011;5805;51.542;7.230;2023-04-24T12:35:32;7.35;;;2.20;;
11496;SDS011;5805;51.542;7.230;2023-04-24T12:38:04;5.72;;;2.60;;
11496;SDS011;5805;51.542;7.230;2023-04-24T12:40:31;3.88;;;2.10;;
11496;SDS011;5805;51.542;7.230;2023-04-24T12:42:58;6.10;;;2.08;;
11496;SDS011;5805;51.542;7.230;2023-04-24T12:45:23;4.22;;;2.28;;
11496;SDS011;5805;51.542;7.230;2023-04-24T12:47:49;3.25;;;1.85;;
11496;SDS011;5805;51.542;7.230;2023-04-24T12:50:15;6.13;;;1.88;;
11496;SDS011;5805;51.542;7.230;2023-04-24T12:52:41;4.40;;;2.03;;
11496;SDS011;5805;51.542;7.230;2023-04-24T12:55:07;4.30;;;2.20;;
11496;SDS011;5805;51.542;7.230;2023-04-24T12:57:34;6.28;;;2.30;;
11496;SDS011;5805;51.542;7.230;2023-04-24T13:00:02;5.25;;;2.05;;
11496;SDS011;5805;51.542;7.230;2023-04-24T13:02:29;5.18;;;1.90;;
11496;SDS011;5805;51.542;7.230;2023-04-24T13:04:55;2.30;;;1.40;;
11496;SDS011;5805;51.542;7.230;2023-04-24T13:07:21;6.18;;;2.33;;
11496;SDS011;5805;51.542;7.230;2023-04-24T13:09:47;3.00;;;1.52;;
11496;SDS011;5805;51.542;7.230;2023-04-24T13:12:14;3.15;;;1.50;;
11496;SDS011;5805;51.542;7.230;2023-04-24T13:14:40;3.13;;;1.40;;
11496;SDS011;5805;51.542;7.230;2023-04-24T13:17:07;1.70;;;1.17;;
11496;SDS011;5805;51.542;7.230;2023-04-24T13:19:35;2.90;;;1.23;;
11496;SDS011;5805;51.542;7.230;2023-04-24T13:22:01;2.47;;;1.50;;
11496;SDS011;5805;51.542;7.230;2023-04-24T13:24:28;1.83;;;1.13;;
11496;SDS011;5805;51.542;7.230;2023-04-24T13:26:53;7.40;;;2.25;;
11496;SDS011;5805;51.542;7.230;2023-04-24T13:29:19;4.90;;;1.60;;
11496;SDS011;5805;51.542;7.230;2023-04-24T13:31:45;3.20;;;1.50;;
11496;SDS011;5805;51.542;7.230;2023-04-24T13:34:13;3.85;;;1.35;;
11496;SDS011;5805;51.542;7.230;2023-04-24T13:36:39;2.78;;;1.73;;
11496;SDS011;5805;51.542;7.230;2023-04-24T13:39:05;5.13;;;1.80;;
11496;SDS011;5805;51.542;7.230;2023-04-24T13:41:31;2.97;;;1.45;;
11496;SDS011;5805;51.542;7.230;2023-04-24T13:43:58;1.95;;;1.50;;
11496;SDS011;5805;51.542;7.230;2023-04-24T13:46:23;3.60;;;1.58;;
11496;SDS011;5805;51.542;7.230;2023-04-24T13:48:49;2.50;;;1.60;;
11496;SDS011;5805;51.542;7.230;2023-04-24T13:51:16;3.92;;;1.20;;
11496;SDS011;5805;51.542;7.230;2023-04-24T13:53:42;3.70;;;1.23;;
11496;SDS011;5805;51.542;7.230;2023-04-24T13:56:08;3.10;;;1.13;;
11496;SDS011;5805;51.542;7.230;2023-04-24T13:58:34;1.83;;;1.10;;
11496;SDS011;5805;51.542;7.230;2023-04-24T14:01:00;3.08;;;1.30;;
11496;SDS011;5805;51.542;7.230;2023-04-24T14:03:25;4.10;;;1.52;;
11496;SDS011;5805;51.542;7.230;2023-04-24T14:05:51;3.33;;;1.73;;
11496;SDS011;5805;51.542;7.230;2023-04-24T14:08:18;4.88;;;1.60;;
11496;SDS011;5805;51.542;7.230;2023-04-24T14:10:44;4.85;;;1.83;;
11496;SDS011;5805;51.542;7.230;2023-04-24T14:13:10;2.25;;;1.42;;
11496;SDS011;5805;51.542;7.230;2023-04-24T14:15:36;2.00;;;1.55;;
11496;SDS011;5805;51.542;7.230;2023-04-24T14:18:02;4.35;;;1.50;;
11496;SDS011;5805;51.542;7.230;2023-04-24T14:20:28;2.72;;;1.80;;
11496;SDS011;5805;51.542;7.230;2023-04-24T14:22:54;1.88;;;1.58;;
11496;SDS011;5805;51.542;7.230;2023-04-24T14:25:21;4.78;;;1.90;;
11496;SDS011;5805;51.542;7.230;2023-04-24T14:27:47;4.28;;;2.28;;
11496;SDS011;5805;51.542;7.230;2023-04-24T14:30:13;3.08;;;1.50;;
11496;SDS011;5805;51.542;7.230;2023-04-24T14:32:39;6.78;;;1.60;;
11496;SDS011;5805;51.542;7.230;2023-04-24T14:35:05;2.75;;;1.52;;
11496;SDS011;5805;51.542;7.230;2023-04-24T14:37:31;3.88;;;1.77;;
11496;SDS011;5805;51.542;7.230;2023-04-24T14:39:57;4.05;;;1.55;;
11496;SDS011;5805;51.542;7.230;2023-04-24T14:42:24;4.68;;;1.60;;
11496;SDS011;5805;51.542;7.230;2023-04-24T14:44:50;2.22;;;1.40;;
11496;SDS011;5805;51.542;7.230;2023-04-24T14:47:16;3.17;;;1.67;;
11496;SDS011;5805;51.542;7.230;2023-04-24T14:49:41;2.95;;;1.67;;
11496;SDS011;5805;51.542;7.230;2023-04-24T14:52:07;3.72;;;1.83;;
11496;SDS011;5805;51.542;7.230;2023-04-24T14:54:33;4.15;;;2.20;;